createdAt,value
2019-04-27T00:00:57.559Z,14.51
2019-04-27T00:03:41.487Z,14.51
2019-04-27T00:06:13.565Z,14.48
2019-04-27T00:08:47.121Z,14.53
2019-04-27T00:11:42.090Z,14.49
2019-04-27T00:14:15.001Z,14.46
2019-04-27T00:17:00.286Z,14.49
2019-04-27T00:19:46.351Z,14.49
2019-04-27T00:22:27.628Z,14.49
2019-04-27T00:24:58.084Z,14.53
2019-04-27T00:27:28.590Z,14.56
2019-04-27T00:29:58.209Z,14.50
2019-04-27T00:32:28.453Z,14.55
2019-04-27T00:34:58.036Z,14.57
2019-04-27T00:37:47.569Z,14.55
2019-04-27T00:40:30.332Z,14.56
2019-04-27T00:43:00.143Z,14.54
2019-04-27T00:45:30.898Z,14.48
2019-04-27T00:48:00.308Z,14.43
2019-04-27T00:50:33.661Z,14.45
2019-04-27T00:53:04.672Z,14.41
2019-04-27T00:55:38.040Z,14.45
2019-04-27T00:58:27.820Z,14.43
2019-04-27T01:01:14.986Z,14.39
2019-04-27T01:03:49.206Z,14.31
2019-04-27T01:06:18.800Z,14.28
2019-04-27T01:08:48.450Z,14.23
2019-04-27T01:11:18.012Z,14.12
2019-04-27T01:13:48.885Z,14.09
2019-04-27T01:16:22.036Z,13.99
2019-04-27T01:18:52.316Z,13.91
2019-04-27T01:21:22.893Z,13.89
2019-04-27T01:23:54.207Z,13.68
2019-04-27T01:26:45.558Z,13.66
2019-04-27T01:29:19.406Z,13.64
2019-04-27T01:31:52.289Z,13.62
2019-04-27T01:34:23.897Z,13.55
2019-04-27T01:36:55.776Z,13.55
2019-04-27T01:39:25.396Z,13.47
2019-04-27T01:41:54.967Z,13.50
2019-04-27T01:44:25.373Z,13.52
2019-04-27T01:46:55.082Z,13.54
2019-04-27T01:49:26.320Z,13.50
2019-04-27T01:51:55.719Z,13.57
2019-04-27T01:54:26.918Z,13.61
2019-04-27T01:56:56.402Z,13.63
2019-04-27T01:59:25.884Z,13.64
2019-04-27T02:02:19.028Z,13.69
2019-04-27T02:05:11.795Z,13.70
2019-04-27T02:07:44.124Z,13.66
2019-04-27T02:10:14.534Z,13.67
2019-04-27T02:12:48.706Z,13.68
2019-04-27T02:15:19.233Z,13.70
2019-04-27T02:17:50.950Z,13.76
2019-04-27T02:20:23.010Z,13.83
2019-04-27T02:22:54.414Z,13.80
2019-04-27T02:25:25.070Z,13.83
2019-04-27T02:28:00.743Z,13.74
2019-04-27T02:31:09.572Z,13.73
2019-04-27T02:33:44.808Z,13.66
2019-04-27T02:36:15.909Z,13.72
2019-04-27T02:38:46.614Z,13.70
2019-04-27T02:41:19.844Z,13.72
2019-04-27T02:44:02.834Z,13.65
2019-04-27T02:46:35.559Z,13.63
2019-04-27T02:49:07.390Z,13.62
2019-04-27T02:52:15.281Z,13.65
2019-04-27T02:54:46.240Z,13.63
2019-04-27T02:57:16.733Z,13.65
2019-04-27T02:59:46.193Z,13.66
2019-04-27T03:02:40.473Z,13.67
2019-04-27T03:05:13.140Z,13.64
2019-04-27T03:07:46.270Z,13.59
2019-04-27T03:10:16.961Z,13.61
2019-04-27T03:12:51.016Z,13.65
2019-04-27T03:15:30.506Z,13.64
2019-04-27T03:18:10.813Z,13.59
2019-04-27T03:20:52.103Z,13.55
2019-04-27T03:23:21.571Z,13.48
2019-04-27T03:26:15.673Z,13.43
2019-04-27T03:28:46.672Z,13.43
2019-04-27T03:31:21.381Z,13.32
2019-04-27T03:33:58.321Z,13.26
2019-04-27T03:36:21.977Z,13.30
2019-04-27T03:38:52.050Z,13.30
2019-04-27T03:41:25.225Z,13.26
2019-04-27T03:43:55.850Z,13.21
2019-04-27T03:46:26.600Z,13.18
2019-04-27T03:48:59.982Z,13.14
2019-04-27T03:51:35.632Z,13.15
2019-04-27T03:54:24.358Z,13.14
2019-04-27T03:57:19.951Z,13.09
2019-04-27T04:00:00.859Z,13.04
2019-04-27T04:02:31.706Z,13.05
2019-04-27T04:05:03.112Z,13.01
2019-04-27T04:07:35.630Z,13.03
2019-04-27T04:10:07.015Z,12.98
2019-04-27T04:12:50.060Z,13.02
2019-04-27T04:15:31.495Z,13.02
2019-04-27T04:18:03.236Z,13.03
2019-04-27T04:20:32.750Z,12.97
2019-04-27T04:23:03.626Z,12.98
2019-04-27T04:25:34.425Z,13.01
2019-04-27T04:28:05.772Z,12.94
2019-04-27T04:30:35.381Z,13.04
2019-04-27T04:33:05.093Z,13.00
2019-04-27T04:35:36.402Z,12.86
2019-04-27T04:38:06.825Z,12.84
2019-04-27T04:40:42.771Z,12.84
2019-04-27T04:43:21.648Z,12.85
2019-04-27T04:46:22.985Z,12.79
2019-04-27T04:48:53.805Z,12.80
2019-04-27T04:51:27.031Z,12.83
2019-04-27T04:53:56.497Z,12.70
2019-04-27T04:56:29.187Z,12.68
2019-04-27T04:59:00.194Z,12.62
2019-04-27T05:01:30.093Z,12.60
2019-04-27T05:04:01.333Z,12.59
2019-04-27T05:06:31.253Z,12.59
2019-04-27T05:09:04.460Z,12.58
2019-04-27T05:11:35.071Z,12.67
2019-04-27T05:14:04.572Z,12.68
2019-04-27T05:16:34.085Z,12.65
2019-04-27T05:19:06.373Z,12.59
2019-04-27T05:21:38.787Z,12.56
2019-04-27T05:24:09.502Z,12.60
2019-04-27T05:26:39.730Z,12.78
2019-04-27T05:29:10.362Z,12.98
2019-04-27T05:31:42.232Z,13.03
2019-04-27T05:34:12.889Z,13.06
2019-04-27T05:36:48.484Z,13.14
2019-04-27T05:39:18.041Z,13.21
2019-04-27T05:41:45.812Z,13.29
2019-04-27T05:44:24.361Z,13.44
2019-04-27T05:47:11.750Z,13.58
2019-04-27T05:49:42.835Z,13.65
2019-04-27T05:52:30.156Z,13.66
2019-04-27T05:55:02.716Z,13.55
2019-04-27T05:57:33.234Z,13.65
2019-04-27T06:00:05.055Z,13.73
2019-04-27T06:02:34.619Z,13.79
2019-04-27T06:05:05.924Z,13.84
2019-04-27T06:07:35.550Z,13.94
2019-04-27T06:10:05.427Z,14.08
2019-04-27T06:12:35.035Z,14.08
2019-04-27T06:15:09.507Z,14.07
2019-04-27T06:17:39.312Z,14.02
2019-04-27T06:20:10.312Z,14.11
2019-04-27T06:22:39.837Z,14.29
2019-04-27T06:25:11.845Z,14.38
2019-04-27T06:27:41.911Z,14.40
2019-04-27T06:30:12.733Z,14.45
2019-04-27T06:32:43.253Z,14.51
2019-04-27T06:35:14.792Z,14.51
2019-04-27T06:37:44.274Z,14.44
2019-04-27T06:40:15.490Z,14.56
2019-04-27T06:42:48.509Z,14.70
2019-04-27T06:45:19.668Z,14.73
2019-04-27T06:47:51.298Z,14.80
2019-04-27T06:50:21.802Z,14.89
2019-04-27T06:52:51.791Z,14.95
2019-04-27T06:55:21.414Z,15.10
2019-04-27T06:57:51.081Z,16.55
2019-04-27T07:00:20.901Z,18.66
2019-04-27T07:02:50.400Z,19.94
2019-04-27T07:05:21.205Z,21.08
2019-04-27T07:07:50.675Z,22.11
2019-04-27T07:10:20.280Z,22.99
2019-04-27T07:12:50.015Z,23.48
2019-04-27T07:15:21.359Z,24.31
2019-04-27T07:17:50.887Z,24.25
2019-04-27T07:20:20.588Z,24.58
2019-04-27T07:22:51.338Z,24.88
2019-04-27T07:25:20.914Z,25.45
2019-04-27T07:27:50.711Z,25.87
2019-04-27T07:30:20.329Z,25.88
2019-04-27T07:32:49.881Z,26.76
2019-04-27T07:35:20.723Z,27.28
2019-04-27T07:37:51.213Z,27.87
2019-04-27T07:40:20.654Z,28.11
2019-04-27T07:42:55.892Z,28.43
2019-04-27T07:45:33.155Z,28.80
2019-04-27T07:48:02.859Z,29.30
2019-04-27T07:50:32.516Z,29.87
2019-04-27T07:53:03.106Z,29.92
2019-04-27T07:55:33.141Z,29.45
2019-04-27T07:58:05.228Z,29.48
2019-04-27T08:00:34.863Z,29.69
2019-04-27T08:03:04.324Z,29.55
2019-04-27T08:05:35.310Z,29.29
2019-04-27T08:08:04.891Z,30.06
2019-04-27T08:10:34.525Z,30.73
2019-04-27T08:13:06.489Z,30.67
2019-04-27T08:15:39.481Z,31.36
2019-04-27T08:18:09.155Z,32.59
2019-04-27T08:20:39.144Z,32.10
2019-04-27T08:23:10.215Z,32.03
2019-04-27T08:25:39.888Z,32.25
2019-04-27T08:28:21.460Z,31.95
2019-04-27T08:31:00.524Z,32.32
2019-04-27T08:33:35.088Z,31.17
2019-04-27T08:36:06.045Z,30.98
2019-04-27T08:38:38.973Z,31.33
2019-04-27T08:41:10.302Z,31.01
2019-04-27T08:43:39.986Z,31.39
2019-04-27T08:46:12.204Z,31.72
2019-04-27T08:48:45.338Z,30.81
2019-04-27T08:51:16.312Z,31.88
2019-04-27T08:53:47.515Z,31.07
2019-04-27T08:56:19.368Z,31.71
2019-04-27T08:58:49.939Z,30.76
2019-04-27T09:01:20.745Z,30.95
2019-04-27T09:03:53.379Z,31.28
2019-04-27T09:06:24.708Z,31.83
2019-04-27T09:09:03.466Z,32.07
2019-04-27T09:11:46.044Z,32.04
2019-04-27T09:14:33.548Z,31.31
2019-04-27T09:17:26.048Z,31.74
2019-04-27T09:20:28.630Z,31.50
2019-04-27T09:22:59.216Z,32.15
2019-04-27T09:25:31.397Z,32.61
2019-04-27T09:28:04.155Z,31.63
2019-04-27T09:30:35.201Z,30.70
2019-04-27T09:33:05.350Z,29.77
2019-04-27T09:35:35.638Z,29.11
2019-04-27T09:38:07.113Z,28.28
2019-04-27T09:40:37.041Z,26.53
2019-04-27T09:43:08.487Z,26.30
2019-04-27T09:45:39.598Z,25.95
2019-04-27T09:48:11.083Z,26.15
2019-04-27T09:50:42.478Z,25.26
2019-04-27T09:53:13.043Z,25.26
2019-04-27T09:55:42.743Z,24.44
2019-04-27T09:58:14.022Z,24.31
2019-04-27T10:00:45.833Z,24.15
2019-04-27T10:03:15.532Z,23.87
2019-04-27T10:05:46.360Z,23.24
2019-04-27T10:08:16.987Z,22.68
2019-04-27T10:10:49.222Z,24.17
2019-04-27T10:13:20.673Z,24.17
2019-04-27T10:15:51.200Z,24.47
2019-04-27T10:18:20.783Z,24.28
2019-04-27T10:21:01.249Z,24.22
2019-04-27T10:23:23.837Z,24.25
2019-04-27T10:25:55.746Z,23.28
2019-04-27T10:28:25.283Z,23.35
2019-04-27T10:30:55.730Z,23.35
2019-04-27T10:33:27.684Z,23.71
2019-04-27T10:35:57.310Z,23.97
2019-04-27T10:38:26.950Z,24.25
2019-04-27T10:40:56.833Z,23.83
2019-04-27T10:43:26.329Z,23.82
2019-04-27T10:45:57.239Z,24.38
2019-04-27T10:48:28.011Z,24.36
2019-04-27T10:50:58.555Z,24.36
2019-04-27T10:53:28.890Z,23.94
2019-04-27T10:55:59.719Z,24.16
2019-04-27T10:58:29.134Z,24.71
2019-04-27T11:01:01.942Z,24.59
2019-04-27T11:03:49.343Z,24.07
2019-04-27T11:06:35.254Z,23.96
2019-04-27T11:09:08.383Z,23.96
2019-04-27T11:11:38.908Z,23.44
2019-04-27T11:14:08.666Z,23.31
2019-04-27T11:16:39.802Z,23.45
2019-04-27T11:19:09.539Z,23.51
2019-04-27T11:21:40.270Z,23.09
2019-04-27T11:24:10.991Z,22.74
2019-04-27T11:26:40.571Z,22.84
2019-04-27T11:29:11.250Z,22.91
2019-04-27T11:31:42.113Z,22.92
2019-04-27T11:34:11.647Z,23.02
2019-04-27T11:36:51.807Z,23.10
2019-04-27T11:39:21.395Z,23.23
2019-04-27T11:41:50.953Z,23.33
2019-04-27T11:44:20.716Z,23.33
2019-04-27T11:46:51.640Z,23.16
2019-04-27T11:49:21.344Z,22.63
2019-04-27T11:51:53.949Z,22.85
2019-04-27T11:54:25.557Z,23.11
2019-04-27T11:56:56.381Z,22.87
2019-04-27T11:59:27.804Z,22.68
2019-04-27T12:01:59.909Z,22.46
2019-04-27T12:04:29.558Z,22.46
2019-04-27T12:07:01.176Z,22.21
2019-04-27T12:09:32.049Z,22.09
2019-04-27T12:12:13.563Z,21.95
2019-04-27T12:14:36.031Z,22.26
2019-04-27T12:17:08.219Z,22.39
2019-04-27T12:19:37.811Z,22.32
2019-04-27T12:22:10.406Z,22.43
2019-04-27T12:24:40.111Z,22.36
2019-04-27T12:27:21.710Z,22.09
2019-04-27T12:30:08.437Z,21.98
2019-04-27T12:32:39.918Z,22.32
2019-04-27T12:35:10.987Z,22.52
2019-04-27T12:37:40.458Z,22.42
2019-04-27T12:40:10.447Z,22.31
2019-04-27T12:42:41.688Z,22.37
2019-04-27T12:45:12.524Z,22.36
2019-04-27T12:47:43.903Z,22.38
2019-04-27T12:50:17.166Z,22.11
2019-04-27T12:52:49.060Z,22.32
2019-04-27T12:55:31.534Z,22.69
2019-04-27T12:58:36.454Z,22.85
2019-04-27T13:01:11.524Z,22.65
2019-04-27T13:03:41.196Z,22.98
2019-04-27T13:06:11.648Z,22.94
2019-04-27T13:08:41.224Z,23.00
2019-04-27T13:11:12.540Z,22.99
2019-04-27T13:13:42.090Z,22.86
2019-04-27T13:16:11.551Z,22.69
2019-04-27T13:18:43.203Z,22.70
2019-04-27T13:21:12.644Z,22.54
2019-04-27T13:23:43.168Z,22.46
2019-04-27T13:26:16.360Z,22.67
2019-04-27T13:28:46.690Z,22.82
2019-04-27T13:31:16.284Z,22.87
2019-04-27T13:33:47.984Z,22.70
2019-04-27T13:36:19.245Z,22.64
2019-04-27T13:38:48.691Z,22.09
2019-04-27T13:41:27.808Z,21.16
2019-04-27T13:43:49.616Z,20.61
2019-04-27T13:46:47.364Z,19.70
2019-04-27T13:49:46.013Z,19.38
2019-04-27T13:52:21.695Z,19.27
2019-04-27T13:54:52.209Z,18.74
2019-04-27T13:57:23.426Z,18.62
2019-04-27T13:59:53.554Z,18.05
2019-04-27T14:02:24.229Z,18.10
2019-04-27T14:04:55.772Z,17.97
2019-04-27T14:07:27.250Z,17.93
2019-04-27T14:09:56.741Z,17.94
2019-04-27T14:12:28.502Z,17.92
2019-04-27T14:14:59.242Z,17.95
2019-04-27T14:17:29.326Z,17.79
2019-04-27T14:19:59.585Z,17.76
2019-04-27T14:22:31.612Z,17.79
2019-04-27T14:25:03.003Z,17.76
2019-04-27T14:27:40.702Z,17.60
2019-04-27T14:30:12.986Z,17.68
2019-04-27T14:32:44.438Z,17.72
2019-04-27T14:35:15.613Z,17.67
2019-04-27T14:37:47.651Z,17.72
2019-04-27T14:40:18.871Z,17.44
2019-04-27T14:42:53.662Z,17.51
2019-04-27T14:45:22.974Z,17.63
2019-04-27T14:47:54.292Z,17.66
2019-04-27T14:50:25.113Z,17.51
2019-04-27T14:52:58.920Z,17.35
2019-04-27T14:55:31.499Z,17.11
2019-04-27T14:58:00.956Z,17.11
2019-04-27T15:00:32.282Z,17.07
2019-04-27T15:03:04.067Z,17.12
2019-04-27T15:05:33.479Z,17.34
2019-04-27T15:08:09.618Z,17.24
2019-04-27T15:10:38.248Z,17.59
2019-04-27T15:13:09.132Z,17.82
2019-04-27T15:15:40.012Z,17.95
2019-04-27T15:18:13.340Z,18.03
2019-04-27T15:20:46.403Z,17.97
2019-04-27T15:23:16.778Z,17.84
2019-04-27T15:25:50.092Z,17.88
2019-04-27T15:28:24.585Z,17.87
2019-04-27T15:31:23.542Z,17.93
2019-04-27T15:34:11.115Z,17.96
2019-04-27T15:36:56.792Z,17.85
2019-04-27T15:39:45.527Z,17.71
2019-04-27T15:42:28.314Z,17.61
2019-04-27T15:44:58.546Z,17.52
2019-04-27T15:47:28.564Z,17.54
2019-04-27T15:49:59.018Z,17.52
2019-04-27T15:52:33.143Z,17.39
2019-04-27T15:55:02.701Z,17.42
2019-04-27T15:57:33.791Z,17.45
2019-04-27T16:00:14.750Z,17.39
2019-04-27T16:02:40.195Z,17.40
2019-04-27T16:05:10.178Z,17.34
2019-04-27T16:07:39.670Z,17.39
2019-04-27T16:10:09.392Z,17.34
2019-04-27T16:12:54.634Z,17.26
2019-04-27T16:15:13.465Z,17.24
2019-04-27T16:17:51.018Z,17.08
2019-04-27T16:20:22.085Z,17.15
2019-04-27T16:22:49.655Z,17.26
2019-04-27T16:25:23.594Z,17.21
2019-04-27T16:27:52.177Z,17.07
2019-04-27T16:30:21.820Z,16.91
2019-04-27T16:32:51.236Z,17.05
2019-04-27T16:35:22.968Z,17.04
2019-04-27T16:38:09.632Z,17.00
2019-04-27T16:40:39.258Z,16.85
2019-04-27T16:43:09.096Z,16.92
2019-04-27T16:45:38.939Z,16.98
2019-04-27T16:48:09.134Z,17.02
2019-04-27T16:50:39.125Z,17.03
2019-04-27T16:53:12.520Z,17.00
2019-04-27T16:55:41.288Z,16.94
2019-04-27T16:58:15.832Z,16.81
2019-04-27T17:00:42.019Z,16.81
2019-04-27T17:03:11.536Z,16.72
2019-04-27T17:05:41.487Z,16.77
2019-04-27T17:08:21.602Z,16.71
2019-04-27T17:10:42.261Z,16.64
2019-04-27T17:13:14.628Z,16.56
2019-04-27T17:16:06.467Z,16.64
2019-04-27T17:18:41.586Z,16.58
2019-04-27T17:21:18.890Z,16.45
2019-04-27T17:23:42.214Z,16.23
2019-04-27T17:26:21.084Z,16.09
2019-04-27T17:28:51.061Z,15.99
2019-04-27T17:31:23.335Z,15.93
2019-04-27T17:33:58.656Z,15.89
2019-04-27T17:36:29.265Z,15.76
2019-04-27T17:38:58.896Z,15.58
2019-04-27T17:41:29.468Z,15.50
2019-04-27T17:44:00.802Z,15.40
2019-04-27T17:46:30.220Z,15.29
2019-04-27T17:49:00.211Z,15.26
2019-04-27T17:51:35.275Z,15.30
2019-04-27T17:54:07.965Z,15.27
2019-04-27T17:56:48.461Z,15.17
2019-04-27T17:59:11.975Z,15.24
2019-04-27T18:01:42.505Z,15.23
2019-04-27T18:04:11.890Z,15.21
2019-04-27T18:06:42.630Z,15.19
2019-04-27T18:09:18.764Z,15.26
2019-04-27T18:11:50.326Z,15.19
2019-04-27T18:14:20.475Z,15.25
2019-04-27T18:16:49.970Z,15.25
2019-04-27T18:19:31.530Z,15.16
2019-04-27T18:22:02.834Z,15.13
2019-04-27T18:24:55.714Z,15.15
2019-04-27T18:27:45.530Z,15.15
2019-04-27T18:30:22.181Z,15.01
2019-04-27T18:32:51.800Z,15.07
2019-04-27T18:35:26.517Z,15.05
2019-04-27T18:38:00.158Z,15.10
2019-04-27T18:40:32.038Z,15.04
2019-04-27T18:43:01.932Z,14.98
2019-04-27T18:45:29.766Z,14.95
2019-04-27T18:48:06.573Z,14.79
2019-04-27T18:50:43.570Z,14.67
2019-04-27T18:53:23.226Z,14.48
2019-04-27T18:55:57.649Z,14.42
2019-04-27T18:58:22.136Z,14.34
2019-04-27T19:00:52.655Z,14.32
2019-04-27T19:03:22.097Z,14.34
2019-04-27T19:05:51.513Z,14.14
2019-04-27T19:08:23.464Z,14.04
2019-04-27T19:10:55.866Z,14.09
2019-04-27T19:13:25.272Z,14.10
2019-04-27T19:15:59.900Z,14.00
2019-04-27T19:18:29.409Z,14.08
2019-04-27T19:20:58.792Z,14.08
2019-04-27T19:23:29.193Z,14.12
2019-04-27T19:26:08.755Z,14.11
2019-04-27T19:28:58.365Z,13.88
2019-04-27T19:31:33.349Z,13.93
2019-04-27T19:34:04.654Z,13.88
2019-04-27T19:36:38.670Z,13.83
2019-04-27T19:39:13.910Z,13.86
2019-04-27T19:41:56.230Z,13.85
2019-04-27T19:44:14.131Z,13.76
2019-04-27T19:46:46.213Z,13.63
2019-04-27T19:49:16.692Z,13.74
2019-04-27T19:51:48.027Z,13.67
2019-04-27T19:54:20.432Z,13.70
2019-04-27T19:56:50.197Z,13.67
2019-04-27T19:59:25.439Z,13.71
2019-04-27T20:01:58.397Z,13.66
2019-04-27T20:04:33.017Z,13.62
2019-04-27T20:07:04.604Z,13.50
2019-04-27T20:09:47.872Z,13.42
2019-04-27T20:12:18.497Z,13.39
2019-04-27T20:14:57.325Z,13.42
2019-04-27T20:17:31.578Z,13.33
2019-04-27T20:20:01.591Z,13.19
2019-04-27T20:22:32.159Z,13.24
2019-04-27T20:25:02.209Z,13.28
2019-04-27T20:27:45.343Z,13.31
2019-04-27T20:30:05.603Z,13.19
2019-04-27T20:32:35.310Z,13.29
2019-04-27T20:35:05.743Z,13.32
2019-04-27T20:37:36.932Z,13.25
2019-04-27T20:40:08.779Z,13.20
2019-04-27T20:42:38.444Z,13.18
2019-04-27T20:45:09.552Z,13.18
2019-04-27T20:47:40.116Z,13.20
2019-04-27T20:50:09.613Z,13.16
2019-04-27T20:52:56.726Z,13.21
2019-04-27T20:55:26.267Z,13.21
2019-04-27T20:58:02.713Z,13.16
2019-04-27T21:00:28.554Z,13.17
2019-04-27T21:03:19.968Z,13.26
2019-04-27T21:06:18.617Z,13.26
2019-04-27T21:08:48.226Z,13.23
2019-04-27T21:11:18.615Z,13.14
2019-04-27T21:13:48.396Z,13.13
2019-04-27T21:16:19.019Z,13.13
2019-04-27T21:18:51.349Z,13.11
2019-04-27T21:21:22.656Z,13.01
2019-04-27T21:23:53.831Z,12.92
2019-04-27T21:26:25.282Z,12.96
2019-04-27T21:28:55.157Z,12.96
2019-04-27T21:31:26.141Z,12.86
2019-04-27T21:33:55.823Z,12.89
2019-04-27T21:36:25.726Z,12.86
2019-04-27T21:38:55.267Z,12.90
2019-04-27T21:41:25.029Z,12.97
2019-04-27T21:43:54.849Z,12.92
2019-04-27T21:46:24.373Z,12.89
2019-04-27T21:48:56.234Z,12.93
2019-04-27T21:51:26.870Z,12.94
2019-04-27T21:54:09.698Z,12.93
2019-04-27T21:56:39.324Z,13.02
2019-04-27T21:59:11.069Z,12.95
2019-04-27T22:01:41.583Z,12.98
2019-04-27T22:04:12.882Z,13.01
2019-04-27T22:06:42.960Z,13.00
2019-04-27T22:09:14.344Z,12.93
2019-04-27T22:12:04.602Z,13.03
2019-04-27T22:14:35.031Z,13.05
2019-04-27T22:17:04.826Z,12.94
2019-04-27T22:19:34.707Z,12.92
2019-04-27T22:22:24.629Z,12.98
2019-04-27T22:25:05.621Z,13.03
2019-04-27T22:27:35.295Z,12.99
2019-04-27T22:30:05.413Z,12.97
2019-04-27T22:32:35.707Z,12.98
2019-04-27T22:35:25.621Z,12.98
2019-04-27T22:37:57.210Z,12.91
2019-04-27T22:40:44.676Z,12.93
2019-04-27T22:43:44.005Z,12.93
2019-04-27T22:46:17.581Z,12.90
2019-04-27T22:48:47.121Z,12.84
2019-04-27T22:51:16.693Z,12.86
2019-04-27T22:53:47.678Z,12.87
2019-04-27T22:56:19.289Z,12.81
2019-04-27T22:59:01.055Z,12.84
2019-04-27T23:01:42.851Z,12.81
2019-04-27T23:04:16.539Z,12.92
2019-04-27T23:06:47.559Z,12.88
2019-04-27T23:09:17.348Z,12.86
2019-04-27T23:11:48.323Z,12.94
2019-04-27T23:14:17.914Z,12.86
2019-04-27T23:16:52.243Z,12.86
2019-04-27T23:19:22.979Z,12.89
2019-04-27T23:21:54.021Z,12.90
2019-04-27T23:24:25.270Z,12.89
2019-04-27T23:26:54.975Z,12.80
2019-04-27T23:29:25.555Z,12.77
2019-04-27T23:32:02.408Z,12.80
2019-04-27T23:34:33.513Z,12.84
2019-04-27T23:37:06.694Z,12.91
2019-04-27T23:39:37.669Z,12.76
2019-04-27T23:42:08.917Z,12.66
2019-04-27T23:44:39.552Z,12.67
2019-04-27T23:47:09.424Z,12.74
2019-04-27T23:49:40.874Z,12.79
2019-04-27T23:52:17.012Z,12.72
2019-04-27T23:54:46.539Z,12.78
2019-04-27T23:57:15.989Z,12.79
2019-04-27T23:59:46.838Z,12.81
